Ariton, AL

2:20 PM CDT on September 04, 2015 (GMT -0500)
Asbury | | Change Station
CLOSE
Current Station
Personal Weather Station
Location: Ozark, AL
Elevation: 367 ft
Nearby Weather Stations

Elev 367 ft 31.51 °N, 85.55 °W | Updated 12 seconds ago

Partly Cloudy
Partly Cloudy
95.2 °F
Feels Like 105 °F
N
0.0
Wind Variable Wind from SSW
Gusts 1.0 mph

Today
High -- | Low -- °F
--% Chance of Precip.
Yesterday
High -- | Low -- °F
Precip. -- in
6:20 AM 7:03 PM
Waning Gibbous, 57% visible
Pressure 29.96 in
Visibility 3.0 miles
Clouds Few 4300 ft
Mostly Cloudy 7500 ft
Overcast 12000 ft
Heat Index 105 °F
Dew Point 73 °F
Humidity 49%
Rainfall 0.00 in
Snow Depth Not available.
UV 3 out of 12
Pollen 8.90 out of 12
Air Quality Not available.
Flu Activity Not available.
SPECI KLOR 041915Z AUTO 15005KT 3SM -RA FEW043 BKN075 OVC120 27/22 A2996 RMK AO2 RAB1858 P0017 T02720217
Pressure 29.96 in
Visibility 3.0 miles
Clouds Few 4300 ft
Mostly Cloudy 7500 ft
Overcast 12000 ft
Heat Index 105 °F
Dew Point 73 °F
Humidity 49%
Rainfall 0.00 in
Snow Depth Not available.
UV 3 out of 12
Pollen 8.90 out of 12
Air Quality Not available.
Flu Activity Not available.
SPECI KLOR 041915Z AUTO 15005KT 3SM -RA FEW043 BKN075 OVC120 27/22 A2996 RMK AO2 RAB1858 P0017 T02720217

10-Day Weather Forecast

×

Almanac

Astronomy

Sep. 04, 2015 Rise Set
Actual Time
Civil Twilight
Nautical Twilight
Astronomical Twilight
Moon
Length of Visible Light
Length of Day
Tomorrow will be .
, % of the Moon is Illuminated

Today's Extremes

State Highs State Lows

Community

WunderPhotos

Upload Photos

1,852,271 photos uploaded!

WunderBlogs® & News

Nearby

Air Quality

  Air Quality AQ Index Pollutant
Not available.

Snow Depth

Station Depth Elevation

Earthquake Activity

City Distance Mag. Time & Date
Minimum magnitude displayed is 2.5.

Coastal Water Temperatures

Place Temperature

Stations

Nearby Weather Stations

Station Location Temp. Windchill Dew Point Humidity Wind Precip. Elev Updated Type